Alexander, New York
Current Conditions -  °F | °C
As of 10:54 AM on Monday 22 Dec 2014 (Local Time) from KBUF Reporting Station
Few Clouds Few Clouds  
Wind Chill: 26°   Ceiling: Unl
Heat Index: 32°   Visibility: 10mi
Dew Point: 22°   Wind: 7mph
Humidity: 66%   Direction: 120°ESE
Pressure: 30.16"   Gusts: NA
Location:  42.9°N, 78.26°W
Report Text: KBUF 221554Z 12006KT 10SM FEW140 FEW190 FEW250 00/M06 A3016 RMK AO2 SLP220 T00001056
Loading
Personal Weather Stations






























Interactive Weather Map New forecast layout! Learn more

10-Day Weather Forecast

Advertisements
Track Severe Weather on mobile